This is the latest recevied weather packets stored in our database for station/object N5XJB. If no packets are shown the sender has not sent any weather packets the latest 10 day(s).
| Time | Temp. | Humidity | Pressure | Rain* | Wind** | Luminosity | Snow |
|---|---|---|---|---|---|---|---|
| 1777837866 | 28.33° C | 31% | 1021.3 hPa | 0 mm | - | 859 W/m² | - |
| 1777837563 | 29.44° C | 34% | 1021.6 hPa | 0 mm | - | 854 W/m² | - |
| 1777837258 | 28.89° C | 35% | 1021.6 hPa | 0 mm | - | 855 W/m² | - |
| 1777836955 | 28.89° C | 36% | 1021.6 hPa | 0 mm | - | 865 W/m² | - |
| 1777836650 | 28.33° C | 35% | 1022 hPa | 0 mm | - | 871 W/m² | - |
| 1777836347 | 29.44° C | 35% | 1022 hPa | 0 mm | - | 904 W/m² | - |
| 1777836043 | 28.89° C | 35% | 1022 hPa | 0 mm | - | 896 W/m² | - |
| 1777835740 | 28.33° C | 34% | 1022 hPa | 0 mm | - | 890 W/m² | - |
| 1777835437 | 28.33° C | 35% | 1022 hPa | 0 mm | - | 879 W/m² | - |
| 1777835134 | 27.78° C | 37% | 1022.3 hPa | 0 mm | - | 884 W/m² | - |
| 1777834831 | 28.33° C | 35% | 1022 hPa | 0 mm | - | 892 W/m² | - |
| 1777834527 | 28.33° C | 35% | 1022.3 hPa | 0 mm | - | 896 W/m² | - |
| 1777834227 | 27.78° C | 36% | 1022.3 hPa | 0 mm | - | 921 W/m² | - |
| 1777833923 | 28.33° C | 35% | 1022.3 hPa | 0 mm | - | 929 W/m² | - |
| 1777833620 | 28.33° C | 35% | 1022.3 hPa | 0 mm | - | 898 W/m² | - |
| 1777833317 | 27.78° C | 39% | 1022.7 hPa | 0 mm | - | 905 W/m² | - |
| 1777833014 | 27.78° C | 34% | 1022.3 hPa | 0 mm | - | 906 W/m² | - |
| 1777832712 | 27.78° C | 36% | 1022.7 hPa | 0 mm | - | 907 W/m² | - |
| 1777832410 | 28.33° C | 36% | 1022.7 hPa | 0 mm | - | 905 W/m² | - |
| 1777832107 | 28.33° C | 37% | 1023 hPa | 0 mm | - | 905 W/m² | - |
| 1777831803 | 27.78° C | 36% | 1023 hPa | 0 mm | - | 902 W/m² | - |
| 1777831501 | 27.78° C | 36% | 1023 hPa | 0 mm | - | 900 W/m² | - |
| 1777831197 | 27.78° C | 36% | 1023 hPa | 0 mm | - | 890 W/m² | - |
| 1777830895 | 27.22° C | 35% | 1023 hPa | 0 mm | - | 900 W/m² | - |
| 1777830591 | 26.67° C | 35% | 1023.3 hPa | 0 mm | - | 895 W/m² | - |
* Rain latest hour (hover to see other rain measurements)
** Current wind speed in m/s (hover to see current wind gust speed)